createdAt,value
2019-02-20T00:03:21.173Z,13.17
2019-02-20T00:07:24.331Z,12.70
2019-02-20T00:11:26.227Z,11.53
2019-02-20T00:15:28.171Z,12.07
2019-02-20T00:19:30.083Z,15.35
2019-02-20T00:23:31.999Z,13.00
2019-02-20T00:27:33.907Z,12.70
2019-02-20T00:31:35.807Z,12.03
2019-02-20T00:35:37.729Z,15.20
2019-02-20T00:39:39.643Z,13.70
2019-02-20T00:43:43.211Z,17.33
2019-02-20T00:47:46.761Z,18.30
2019-02-20T00:51:50.301Z,15.87
2019-02-20T00:55:52.395Z,18.27
2019-02-20T00:59:54.303Z,14.83
2019-02-20T01:03:56.211Z,16.20
2019-02-20T01:07:58.123Z,13.47
2019-02-20T01:12:00.025Z,13.83
2019-02-20T01:16:02.024Z,18.57
2019-02-20T01:20:05.274Z,16.43
2019-02-20T01:24:07.201Z,22.10
2019-02-20T01:28:09.114Z,16.33
2019-02-20T01:32:11.012Z,18.70
2019-02-20T01:36:13.911Z,22.47
2019-02-20T01:40:15.809Z,25.23
2019-02-20T01:44:17.714Z,13.90
2019-02-20T01:48:19.634Z,18.63
2019-02-20T01:52:21.531Z,16.70
2019-02-20T01:56:24.506Z,17.76
2019-02-20T02:00:26.425Z,21.07
2019-02-20T02:04:28.342Z,22.13
2019-02-20T02:08:31.227Z,16.33
2019-02-20T02:12:34.135Z,18.20
2019-02-20T02:16:36.054Z,21.02
2019-02-20T02:20:39.039Z,16.60
2019-02-20T02:24:40.976Z,23.43
2019-02-20T02:28:42.877Z,19.37
2019-02-20T02:32:44.845Z,19.13
2019-02-20T02:36:46.764Z,13.50
2019-02-20T02:40:48.675Z,19.87
2019-02-20T02:44:50.593Z,17.75
2019-02-20T02:48:52.506Z,21.07
2019-02-20T02:52:54.404Z,29.40
2019-02-20T02:56:56.330Z,21.77
2019-02-20T03:00:58.319Z,22.60
2019-02-20T03:05:00.255Z,15.27
2019-02-20T03:09:02.236Z,18.10
2019-02-20T03:13:05.863Z,20.40
2019-02-20T03:17:07.792Z,16.23
2019-02-20T03:21:09.700Z,17.20
2019-02-20T03:25:11.613Z,25.00
2019-02-20T03:29:13.561Z,15.43
2019-02-20T03:33:15.454Z,22.27
2019-02-20T03:37:17.453Z,22.23
2019-02-20T03:41:19.373Z,16.97
2019-02-20T03:45:21.309Z,22.37
2019-02-20T03:49:23.208Z,22.20
2019-02-20T03:53:25.128Z,18.43
2019-02-20T03:57:27.019Z,18.57
2019-02-20T04:01:28.941Z,19.30
2019-02-20T04:05:30.876Z,27.57
2019-02-20T04:09:32.777Z,20.47
2019-02-20T04:13:34.705Z,22.63
2019-02-20T04:17:36.610Z,25.70
2019-02-20T04:21:38.529Z,37.53
2019-02-20T04:25:40.443Z,18.20
2019-02-20T04:29:42.363Z,17.80
2019-02-20T04:33:45.246Z,21.83
2019-02-20T04:37:47.147Z,22.43
2019-02-20T04:41:49.069Z,18.03
2019-02-20T04:45:50.993Z,23.10
2019-02-20T04:49:52.909Z,17.17
2019-02-20T04:53:54.837Z,20.33
2019-02-20T04:58:20.736Z,21.23
2019-02-20T05:02:22.635Z,24.25
2019-02-20T05:06:24.842Z,18.07
2019-02-20T05:10:26.754Z,24.77
2019-02-20T05:14:28.673Z,26.87
2019-02-20T05:18:31.565Z,21.77
2019-02-20T05:22:33.468Z,31.15
2019-02-20T05:26:35.406Z,22.37
2019-02-20T05:30:37.321Z,36.83
2019-02-20T05:34:39.252Z,22.40
2019-02-20T05:38:41.170Z,23.07
2019-02-20T05:42:43.078Z,20.47
2019-02-20T05:46:45.003Z,20.73
2019-02-20T05:50:46.931Z,15.40
2019-02-20T05:54:48.832Z,32.80
2019-02-20T05:58:50.766Z,29.33
2019-02-20T06:02:52.676Z,32.17
2019-02-20T06:06:54.595Z,25.10
2019-02-20T06:10:56.518Z,28.77
2019-02-20T06:14:58.442Z,30.33
2019-02-20T06:19:00.349Z,39.63
2019-02-20T06:23:02.418Z,30.23
2019-02-20T06:27:04.374Z,36.17
2019-02-20T06:31:06.274Z,44.43
2019-02-20T06:35:08.561Z,43.03
2019-02-20T06:39:10.493Z,38.83
2019-02-20T06:43:12.401Z,30.37
2019-02-20T06:47:14.375Z,29.70
2019-02-20T06:51:16.316Z,45.47
2019-02-20T06:55:18.217Z,19.93
2019-02-20T06:59:20.133Z,47.93
2019-02-20T07:03:22.051Z,36.20
2019-02-20T07:08:02.815Z,22.30
2019-02-20T07:12:39.669Z,53.00
2019-02-20T07:17:14.948Z,25.85
2019-02-20T07:21:33.421Z,61.80
2019-02-20T07:26:04.331Z,27.07
2019-02-20T07:30:10.179Z,50.57
2019-02-20T07:34:12.100Z,43.57
2019-02-20T07:38:14.011Z,48.67
2019-02-20T07:42:15.947Z,63.00
2019-02-20T07:46:17.846Z,50.33
2019-02-20T07:50:20.732Z,37.13
2019-02-20T07:54:22.635Z,44.57
2019-02-20T07:58:24.878Z,52.80
2019-02-20T08:02:26.781Z,48.80
2019-02-20T08:06:28.720Z,43.73
2019-02-20T08:10:31.678Z,59.60
2019-02-20T08:14:33.588Z,42.78
2019-02-20T08:18:35.475Z,71.93
2019-02-20T08:22:37.432Z,63.63
2019-02-20T08:26:39.338Z,31.23
2019-02-20T08:30:41.252Z,47.93
2019-02-20T08:34:43.145Z,71.37
2019-02-20T08:38:45.034Z,87.33
2019-02-20T08:42:46.950Z,71.73
2019-02-20T08:46:48.841Z,50.20
2019-02-20T08:50:50.757Z,83.07
2019-02-20T08:54:52.662Z,54.87
2019-02-20T08:58:54.561Z,40.70
2019-02-20T09:02:56.461Z,58.13
2019-02-20T09:06:58.377Z,66.97
2019-02-20T09:11:00.283Z,57.30
2019-02-20T09:15:02.184Z,57.60
2019-02-20T09:19:04.137Z,52.30
2019-02-20T09:23:06.051Z,68.00
2019-02-20T09:27:07.955Z,59.20
2019-02-20T09:31:09.850Z,63.03
2019-02-20T09:35:11.893Z,63.97
2019-02-20T09:39:35.171Z,44.40
2019-02-20T09:43:37.061Z,49.60
2019-02-20T09:47:38.964Z,65.12
2019-02-20T09:51:40.872Z,67.07
2019-02-20T09:55:51.340Z,49.23
2019-02-20T09:59:46.379Z,64.87
2019-02-20T10:03:48.269Z,47.93
2019-02-20T10:07:50.178Z,59.50
2019-02-20T10:11:52.085Z,37.00
2019-02-20T10:15:53.981Z,71.60
2019-02-20T10:19:55.892Z,67.77
2019-02-20T10:23:57.857Z,63.27
2019-02-20T10:27:59.770Z,45.63
2019-02-20T10:32:03.310Z,47.97
2019-02-20T10:36:05.211Z,50.33
2019-02-20T10:40:10.124Z,55.47
2019-02-20T10:44:12.081Z,39.70
2019-02-20T10:48:13.992Z,61.77
2019-02-20T10:52:15.934Z,52.80
2019-02-20T10:56:17.832Z,40.30
2019-02-20T11:00:24.282Z,48.47
2019-02-20T11:04:24.972Z,53.80
2019-02-20T11:08:26.876Z,50.30
2019-02-20T11:12:28.781Z,49.77
2019-02-20T11:16:30.755Z,47.00
2019-02-20T11:20:32.673Z,48.13
2019-02-20T11:24:34.557Z,45.08
2019-02-20T11:28:36.459Z,43.43
2019-02-20T11:32:38.342Z,47.73
2019-02-20T11:36:40.557Z,48.52
2019-02-20T11:40:42.563Z,45.40
2019-02-20T11:44:44.451Z,48.87
2019-02-20T11:48:46.366Z,50.30
2019-02-20T11:52:48.270Z,44.10
2019-02-20T11:56:50.171Z,48.90
2019-02-20T12:00:52.073Z,55.20
2019-02-20T12:04:53.965Z,44.33
2019-02-20T12:08:55.882Z,46.73
2019-02-20T12:12:57.789Z,44.63
2019-02-20T12:16:59.698Z,42.00
2019-02-20T12:21:01.603Z,39.27
2019-02-20T12:25:03.557Z,26.57
2019-02-20T12:29:05.460Z,36.30
2019-02-20T12:33:07.484Z,20.83
2019-02-20T12:37:09.388Z,17.97
2019-02-20T12:41:11.281Z,18.60
2019-02-20T12:45:13.327Z,19.10
2019-02-20T12:49:15.295Z,19.30
2019-02-20T12:53:17.198Z,18.20
2019-02-20T12:57:19.100Z,14.27
2019-02-20T13:01:20.986Z,15.23
2019-02-20T13:05:22.888Z,15.50
2019-02-20T13:09:25.365Z,16.47
2019-02-20T13:13:27.297Z,15.87
2019-02-20T13:17:30.163Z,18.80
2019-02-20T13:21:32.066Z,14.60
2019-02-20T13:25:33.970Z,15.65
2019-02-20T13:29:35.873Z,13.75
2019-02-20T13:33:37.766Z,16.57
2019-02-20T13:37:39.684Z,17.03
2019-02-20T13:41:41.574Z,14.05
2019-02-20T13:45:43.478Z,18.77
2019-02-20T13:49:45.424Z,16.13
2019-02-20T13:53:47.361Z,14.93
2019-02-20T13:57:49.347Z,15.87
2019-02-20T14:01:51.258Z,15.90
2019-02-20T14:05:53.207Z,14.53
2019-02-20T14:09:55.101Z,16.03
2019-02-20T14:13:56.999Z,19.03
2019-02-20T14:17:58.904Z,14.77
2019-02-20T14:22:00.794Z,13.53
2019-02-20T14:26:02.707Z,13.60
2019-02-20T14:30:10.053Z,15.03
2019-02-20T14:34:11.960Z,15.50
2019-02-20T14:38:13.857Z,12.20
2019-02-20T14:42:15.763Z,16.37
2019-02-20T14:46:17.674Z,12.73
2019-02-20T14:50:19.560Z,12.17
2019-02-20T14:54:21.498Z,16.43
2019-02-20T14:58:23.368Z,17.27
2019-02-20T15:02:26.459Z,10.53
2019-02-20T15:06:29.323Z,13.03
2019-02-20T15:10:31.338Z,9.70
2019-02-20T15:14:34.592Z,10.30
2019-02-20T15:18:36.603Z,7.95
2019-02-20T15:22:38.496Z,14.33
2019-02-20T15:26:40.469Z,8.78
2019-02-20T15:30:42.400Z,9.50
2019-02-20T15:34:44.299Z,6.27
2019-02-20T15:38:46.201Z,13.03
2019-02-20T15:42:48.163Z,8.50
2019-02-20T15:46:50.074Z,13.07
2019-02-20T15:50:53.079Z,11.10
2019-02-20T15:54:56.126Z,2.33
2019-02-20T15:58:58.047Z,6.00
2019-02-20T16:02:59.961Z,6.33
2019-02-20T16:07:01.913Z,5.97
2019-02-20T16:11:03.796Z,5.33
2019-02-20T16:15:09.314Z,4.77
2019-02-20T16:19:11.321Z,3.43
2019-02-20T16:23:13.239Z,6.60
2019-02-20T16:27:15.137Z,4.70
2019-02-20T16:31:17.018Z,8.57
2019-02-20T16:35:18.934Z,12.30
2019-02-20T16:39:21.903Z,6.87
2019-02-20T16:43:25.028Z,6.53
2019-02-20T16:47:26.963Z,8.73
2019-02-20T16:51:28.849Z,5.63
2019-02-20T16:55:30.763Z,13.77
2019-02-20T16:59:32.668Z,5.42
2019-02-20T17:03:34.571Z,6.90
2019-02-20T17:07:36.442Z,5.70
2019-02-20T17:11:38.503Z,5.20
2019-02-20T17:15:40.412Z,11.20
2019-02-20T17:19:42.332Z,6.12
2019-02-20T17:23:44.231Z,8.43
2019-02-20T17:27:49.799Z,9.53
2019-02-20T17:31:51.983Z,10.87
2019-02-20T17:35:53.886Z,13.07
2019-02-20T17:39:55.802Z,8.50
2019-02-20T17:43:57.677Z,14.47
2019-02-20T17:47:59.596Z,8.37
2019-02-20T17:52:01.677Z,9.80
2019-02-20T17:56:03.843Z,5.27
2019-02-20T18:00:12.583Z,6.93
2019-02-20T18:04:14.621Z,8.23
2019-02-20T18:08:16.556Z,9.50
2019-02-20T18:12:18.469Z,5.37
2019-02-20T18:16:20.365Z,3.00
2019-02-20T18:20:22.263Z,6.13
2019-02-20T18:24:26.111Z,6.28
2019-02-20T18:28:28.168Z,5.57
2019-02-20T18:32:30.080Z,4.85
2019-02-20T18:36:31.973Z,7.40
2019-02-20T18:40:34.721Z,4.00
2019-02-20T18:44:36.792Z,5.73
2019-02-20T18:48:38.695Z,6.95
2019-02-20T18:52:40.585Z,4.83
2019-02-20T18:56:42.561Z,9.07
2019-02-20T19:00:44.536Z,9.60
2019-02-20T19:04:46.448Z,4.93
2019-02-20T19:08:51.640Z,3.98
2019-02-20T19:13:32.655Z,8.70
2019-02-20T19:18:08.452Z,5.50
2019-02-20T19:22:23.536Z,6.03
2019-02-20T19:26:30.019Z,7.87
2019-02-20T19:30:52.630Z,8.43
2019-02-20T19:35:22.918Z,5.23
2019-02-20T19:39:35.906Z,5.90
2019-02-20T19:43:47.714Z,5.95
2019-02-20T19:48:16.482Z,4.97
2019-02-20T19:52:41.110Z,4.93
2019-02-20T19:57:02.058Z,7.00
2019-02-20T20:01:44.789Z,4.13
2019-02-20T20:06:25.517Z,6.23
2019-02-20T20:10:52.001Z,5.80
2019-02-20T20:15:18.360Z,5.13
2019-02-20T20:19:54.816Z,7.27
2019-02-20T20:24:37.857Z,4.43
2019-02-20T20:29:12.971Z,10.68
2019-02-20T20:33:50.537Z,4.87
2019-02-20T20:38:19.604Z,7.63
2019-02-20T20:42:40.923Z,4.57
2019-02-20T20:46:59.505Z,7.12
2019-02-20T20:51:26.183Z,6.75
2019-02-20T20:55:54.787Z,9.37
2019-02-20T21:00:27.118Z,11.17
2019-02-20T21:04:53.319Z,6.43
2019-02-20T21:08:59.789Z,5.30
2019-02-20T21:13:36.505Z,7.03
2019-02-20T21:18:11.760Z,8.00
2019-02-20T21:22:33.302Z,5.67
2019-02-20T21:27:01.422Z,7.77
2019-02-20T21:31:36.922Z,10.75
2019-02-20T21:35:46.156Z,9.53
2019-02-20T21:39:58.246Z,7.60
2019-02-20T21:44:31.827Z,8.30
2019-02-20T21:48:58.874Z,13.43
2019-02-20T21:53:40.247Z,8.90
2019-02-20T21:58:20.335Z,10.90
2019-02-20T22:02:30.015Z,10.00
2019-02-20T22:07:08.778Z,7.92
2019-02-20T22:11:32.551Z,9.47
2019-02-20T22:16:10.325Z,11.40
2019-02-20T22:20:46.418Z,10.47
2019-02-20T22:25:10.957Z,8.38
2019-02-20T22:29:36.917Z,11.83
2019-02-20T22:33:52.328Z,13.48
2019-02-20T22:38:19.712Z,10.13
2019-02-20T22:42:35.092Z,9.47
2019-02-20T22:46:44.423Z,10.72
2019-02-20T22:51:03.081Z,11.47
2019-02-20T22:55:24.804Z,11.47
2019-02-20T23:00:04.879Z,8.77
2019-02-20T23:04:24.588Z,7.73
2019-02-20T23:08:58.594Z,10.67
2019-02-20T23:13:10.682Z,11.83
2019-02-20T23:17:12.559Z,9.13
2019-02-20T23:21:15.437Z,8.83
2019-02-20T23:25:17.326Z,7.90
2019-02-20T23:29:19.228Z,14.80
2019-02-20T23:33:21.125Z,6.63
2019-02-20T23:37:22.996Z,9.10
2019-02-20T23:41:25.514Z,12.68
2019-02-20T23:45:27.405Z,11.17
2019-02-20T23:49:29.299Z,7.87
2019-02-20T23:53:31.187Z,8.90
2019-02-20T23:57:33.073Z,10.45
